Time;durP1;ratioP1;P1;durP2;ratioP2;P2;SDS_P1;SDS_P2;PMS_P1;PMS_P2;Temp;Humidity;BMP_temperature;BMP_pressure;BME280_temperature;BME280_humidity;BME280_pressure;Samples;Min_cycle;Max_cycle;Signal;HPM_P1;HPM_P2
2021/01/02 00:00:42;;;;;;;100.28;39.08;;;;;;;5.34;100.00;100417.81;5058661;28;20115;-74
2021/01/02 00:03:46;;;;;;;101.63;36.95;;;;;;;5.07;100.00;100417.56;5051066;28;20032;-74
2021/01/02 00:06:27;;;;;;;96.65;35.63;;;;;;;5.21;100.00;100418.84;5062961;28;20752;-73
2021/01/02 00:09:05;;;;;;;98.23;39.33;;;;;;;5.36;100.00;100420.94;5039410;28;20067;-73
2021/01/02 00:12:05;;;;;;;106.78;40.08;;;;;;;5.41;100.00;100414.63;5060813;28;20048;-74
2021/01/02 00:15:06;;;;;;;106.28;38.65;;;;;;;5.41;100.00;100422.66;5035163;28;20584;-74
2021/01/02 00:17:51;;;;;;;102.33;36.80;;;;;;;5.48;100.00;100420.22;5043327;28;20102;-74
2021/01/02 00:20:55;;;;;;;99.35;39.05;;;;;;;5.40;100.00;100423.78;5045811;28;20288;-73
2021/01/02 00:23:41;;;;;;;97.75;36.45;;;;;;;5.28;100.00;100421.78;5030482;28;20478;-73
2021/01/02 00:26:34;;;;;;;99.57;37.42;;;;;;;5.42;100.00;100435.66;5027206;28;20025;-73
2021/01/02 00:29:03;;;;;;;93.82;35.28;;;;;;;5.36;100.00;100431.63;5021958;28;20046;-73
2021/01/02 00:32:05;;;;;;;95.03;36.10;;;;;;;5.29;100.00;100430.59;5048872;28;20069;-73
2021/01/02 00:34:50;;;;;;;94.70;36.38;;;;;;;5.22;100.00;100430.31;5005133;28;20108;-73
2021/01/02 00:37:19;;;;;;;95.43;35.53;;;;;;;5.14;100.00;100429.28;5042557;28;20045;-73
2021/01/02 00:39:58;;;;;;;87.30;35.42;;;;;;;5.17;100.00;100430.50;5045300;28;20028;-74
2021/01/02 00:42:25;;;;;;;89.20;34.47;;;;;;;5.24;100.00;100434.25;5044772;28;20088;-73
2021/01/02 00:44:54;;;;;;;88.90;34.75;;;;;;;5.17;100.00;100430.50;5037830;28;20111;-73
2021/01/02 00:47:20;;;;;;;87.40;35.38;;;;;;;5.17;100.00;100427.81;5021221;28;20086;-73
2021/01/02 00:49:49;;;;;;;94.43;36.03;;;;;;;5.30;100.00;100422.25;5041400;28;20151;-73
2021/01/02 00:52:42;;;;;;;97.60;36.97;;;;;;;5.33;100.00;100429.63;5036847;28;20031;-72
2021/01/02 00:55:31;;;;;;;78.97;33.70;;;;;;;5.20;100.00;100436.00;5034091;28;20712;-73
2021/01/02 00:58:07;;;;;;;89.97;34.20;;;;;;;5.14;100.00;100439.94;5060056;28;20079;-74
2021/01/02 01:00:38;;;;;;;89.85;34.95;;;;;;;5.16;100.00;100434.28;5038818;28;20025;-73
2021/01/02 01:03:26;;;;;;;84.03;33.35;;;;;;;5.08;100.00;100437.78;5025206;28;20423;-73
2021/01/02 01:05:55;;;;;;;91.97;34.70;;;;;;;5.17;100.00;100433.16;5045077;28;20037;-74
2021/01/02 01:08:22;;;;;;;89.07;32.03;;;;;;;5.26;100.00;100442.72;5049422;28;20090;-73
2021/01/02 01:10:48;;;;;;;82.88;34.70;;;;;;;5.17;100.00;100439.28;5043448;28;20482;-74
2021/01/02 01:13:23;;;;;;;86.68;34.03;;;;;;;5.31;100.00;100442.50;5033120;28;20025;-73
2021/01/02 01:15:49;;;;;;;87.13;33.13;;;;;;;5.21;100.00;100444.75;5026610;28;20073;-73
2021/01/02 01:18:14;;;;;;;87.00;33.83;;;;;;;5.05;100.00;100449.88;5042613;28;20033;-73
2021/01/02 01:20:57;;;;;;;82.50;33.25;;;;;;;5.09;100.00;100445.47;5042764;28;20029;-71
2021/01/02 01:23:47;;;;;;;82.03;33.03;;;;;;;5.21;100.00;100444.75;5048261;28;20454;-73
2021/01/02 01:26:39;;;;;;;88.15;34.45;;;;;;;5.15;100.00;100464.75;5035727;28;20034;-73
2021/01/02 01:29:05;;;;;;;79.07;32.53;;;;;;;5.02;100.00;100453.19;5027378;28;20050;-72
2021/01/02 01:31:45;;;;;;;88.75;33.67;;;;;;;5.04;100.00;100453.66;5046980;28;20600;-73
2021/01/02 01:34:20;;;;;;;89.03;34.00;;;;;;;5.16;100.00;100463.63;5048431;28;20032;-73
2021/01/02 01:36:47;;;;;;;82.60;32.17;;;;;;;5.13;100.00;100464.31;5028289;28;20500;-72
2021/01/02 01:39:14;;;;;;;89.10;33.72;;;;;;;5.23;100.00;100458.56;5037135;28;20025;-72
2021/01/02 01:41:43;;;;;;;82.22;33.30;;;;;;;5.21;100.00;100466.91;5028663;28;20041;-72
2021/01/02 01:44:09;;;;;;;95.72;34.03;;;;;;;5.02;100.00;100471.88;5044615;28;20032;-73
2021/01/02 01:46:36;;;;;;;80.63;33.38;;;;;;;4.96;100.00;100467.81;5047205;28;20661;-73
2021/01/02 01:49:10;;;;;;;89.05;34.17;;;;;;;5.02;100.00;100477.22;5043156;28;20496;-72
2021/01/02 01:52:03;;;;;;;82.20;32.45;;;;;;;5.14;100.00;100476.53;5045543;28;20033;-74
2021/01/02 01:54:37;;;;;;;83.47;31.90;;;;;;;5.01;100.00;100477.53;5050860;28;20028;-73
2021/01/02 01:57:06;;;;;;;89.40;33.33;;;;;;;4.99;100.00;100466.41;5051391;28;20091;-73
2021/01/02 01:59:56;;;;;;;82.15;32.88;;;;;;;4.99;100.00;100482.41;5043114;28;20438;-73
2021/01/02 02:02:44;;;;;;;78.57;32.67;;;;;;;4.79;100.00;100481.25;5053783;28;20075;-73
2021/01/02 02:05:22;;;;;;;81.18;32.53;;;;;;;5.06;100.00;100472.81;5049827;28;20041;-73
2021/01/02 02:08:05;;;;;;;78.43;31.15;;;;;;;5.13;100.00;100477.63;5061451;28;20453;-73
2021/01/02 02:10:42;;;;;;;78.45;31.00;;;;;;;4.96;100.00;100483.81;5052548;28;20052;-73
2021/01/02 02:13:12;;;;;;;78.05;31.63;;;;;;;5.15;100.00;100472.75;5051212;28;20485;-73
2021/01/02 02:15:53;;;;;;;78.60;31.38;;;;;;;4.89;100.00;100477.44;5040184;28;20044;-73
2021/01/02 02:18:25;;;;;;;71.35;29.48;;;;;;;4.94;100.00;100491.38;5049619;28;20434;-73
2021/01/02 02:20:59;;;;;;;77.13;31.17;;;;;;;5.05;100.00;100492.56;5030319;28;20041;-73
2021/01/02 02:23:39;;;;;;;75.13;29.20;;;;;;;5.02;100.00;100490.56;5048820;28;20029;-73
2021/01/02 02:26:30;;;;;;;71.30;30.42;;;;;;;5.22;100.00;100491.72;5051853;28;20555;-73
2021/01/02 02:29:08;;;;;;;69.70;28.52;;;;;;;5.03;100.00;100475.34;5049217;28;20041;-73
2021/01/02 02:31:39;;;;;;;69.72;29.48;;;;;;;5.05;100.00;100478.47;5055039;28;20037;-73
2021/01/02 02:34:05;;;;;;;71.07;29.45;;;;;;;5.20;100.00;100485.91;5042913;28;20029;-73
2021/01/02 02:36:31;;;;;;;72.82;29.77;;;;;;;5.02;100.00;100479.88;5056896;28;20595;-73
2021/01/02 02:39:06;;;;;;;72.40;31.25;;;;;;;5.04;100.00;100485.69;5048618;28;20083;-73
2021/01/02 02:41:42;;;;;;;69.80;30.10;;;;;;;5.05;100.00;100484.56;5059650;28;20392;-73
2021/01/02 02:44:10;;;;;;;68.82;29.08;;;;;;;4.97;100.00;100482.75;5038835;28;20060;-73
2021/01/02 02:46:42;;;;;;;72.88;30.77;;;;;;;5.02;100.00;100477.22;5056161;28;20111;-73
2021/01/02 02:49:11;;;;;;;66.00;28.67;;;;;;;5.02;100.00;100482.56;5022569;28;20075;-73
2021/01/02 02:51:44;;;;;;;65.75;28.25;;;;;;;5.28;100.00;100482.41;5051629;28;20025;-73
2021/01/02 02:54:10;;;;;;;69.45;29.40;;;;;;;5.23;100.00;100486.03;5039427;28;20029;-73
2021/01/02 02:56:35;;;;;;;69.28;28.13;;;;;;;5.24;100.00;100481.50;5051379;28;20119;-73
2021/01/02 02:59:01;;;;;;;66.03;28.10;;;;;;;5.17;100.00;100487.31;5048978;28;20041;-73
2021/01/02 03:01:28;;;;;;;69.72;30.00;;;;;;;5.22;100.00;100500.50;5051384;28;20056;-73
2021/01/02 03:03:55;;;;;;;68.85;28.50;;;;;;;5.25;100.00;100489.19;5052334;28;20033;-73
2021/01/02 03:06:22;;;;;;;68.95;28.38;;;;;;;5.14;100.00;100485.31;5052062;28;20051;-73
2021/01/02 03:08:52;;;;;;;62.40;28.65;;;;;;;5.14;100.00;100493.31;5033329;28;20079;-72
2021/01/02 03:11:21;;;;;;;63.75;28.80;;;;;;;5.14;100.00;100496.00;5050307;28;20025;-73
2021/01/02 03:13:46;;;;;;;62.97;27.50;;;;;;;5.19;100.00;100493.13;5050437;28;20111;-73
2021/01/02 03:16:12;;;;;;;62.88;26.85;;;;;;;4.99;100.00;100499.22;5051509;28;20124;-73
2021/01/02 03:18:38;;;;;;;69.82;28.83;;;;;;;5.04;100.00;100496.34;5053492;28;20040;-73
2021/01/02 03:21:03;;;;;;;68.18;29.10;;;;;;;5.09;100.00;100498.81;5047803;28;20029;-73
2021/01/02 03:23:29;;;;;;;67.88;29.85;;;;;;;5.10;100.00;100503.06;5055140;28;20033;-73
2021/01/02 03:26:03;;;;;;;68.53;28.70;;;;;;;4.78;100.00;100500.25;5048613;28;20040;-72
2021/01/02 03:28:28;;;;;;;67.25;28.65;;;;;;;4.73;100.00;100513.72;5053492;28;20116;-73
2021/01/02 03:30:54;;;;;;;68.05;29.17;;;;;;;4.79;100.00;100507.91;5044371;28;20437;-75
2021/01/02 03:33:19;;;;;;;67.88;28.48;;;;;;;4.94;100.00;100514.59;5052118;28;20373;-74
2021/01/02 03:35:45;;;;;;;68.13;27.88;;;;;;;4.86;100.00;100513.53;5048330;28;20104;-74
2021/01/02 03:38:10;;;;;;;64.97;28.33;;;;;;;4.78;100.00;100511.66;5050397;28;20032;-74
2021/01/02 03:40:35;;;;;;;70.45;29.13;;;;;;;4.97;100.00;100516.63;5046103;28;20029;-74
2021/01/02 03:43:01;;;;;;;69.95;29.35;;;;;;;4.76;100.00;100519.22;5047059;28;20033;-74
2021/01/02 03:45:26;;;;;;;68.53;29.73;;;;;;;4.83;100.00;100521.38;5050585;28;20025;-74
2021/01/02 03:47:52;;;;;;;65.70;28.83;;;;;;;4.95;100.00;100513.50;5043998;28;20045;-74
2021/01/02 03:50:17;;;;;;;63.53;27.98;;;;;;;4.86;100.00;100516.19;5048106;28;20037;-75
2021/01/02 03:52:43;;;;;;;65.70;28.58;;;;;;;4.82;100.00;100522.50;5050355;28;20036;-74
2021/01/02 03:55:10;;;;;;;69.10;29.20;;;;;;;4.99;100.00;100528.56;5048242;28;20474;-74
2021/01/02 03:57:36;;;;;;;65.90;28.70;;;;;;;4.86;100.00;100526.09;5037838;28;20021;-74
2021/01/02 04:00:06;;;;;;;67.40;28.98;;;;;;;4.83;100.00;100527.50;5046788;28;20021;-74
2021/01/02 04:02:32;;;;;;;66.00;27.63;;;;;;;4.86;100.00;100524.19;5048116;28;20427;-74
2021/01/02 04:05:18;;;;;;;61.55;27.00;;;;;;;4.80;100.00;100517.47;5030767;28;20040;-74
2021/01/02 04:07:43;;;;;;;60.00;25.88;;;;;;;4.71;100.00;100519.38;5029087;28;20041;-75
2021/01/02 04:10:09;;;;;;;61.33;28.23;;;;;;;4.68;100.00;100533.38;5027021;28;20059;-74
2021/01/02 04:12:35;;;;;;;62.38;27.25;;;;;;;4.88;100.00;100526.56;5044031;28;20067;-74
2021/01/02 04:15:00;;;;;;;70.15;27.63;;;;;;;4.96;100.00;100523.06;5049282;28;20047;-74
2021/01/02 04:17:26;;;;;;;66.55;28.50;;;;;;;4.91;100.00;100524.03;5051497;28;20869;-74
2021/01/02 04:19:51;;;;;;;67.40;28.05;;;;;;;4.88;100.00;100526.56;5013254;28;20128;-74
2021/01/02 04:22:17;;;;;;;68.65;28.13;;;;;;;4.84;100.00;100514.97;5031308;28;20049;-75
2021/01/02 04:24:43;;;;;;;66.18;27.67;;;;;;;4.92;100.00;100517.59;5044503;28;20035;-74
2021/01/02 04:27:08;;;;;;;66.40;26.42;;;;;;;5.02;100.00;100519.13;5038009;28;20040;-74
2021/01/02 04:29:34;;;;;;;64.40;27.98;;;;;;;4.95;100.00;100522.28;5046838;28;20049;-74
2021/01/02 04:32:00;;;;;;;65.72;28.58;;;;;;;5.00;100.00;100519.44;5038196;28;20073;-74
2021/01/02 04:34:27;;;;;;;70.32;28.75;;;;;;;4.93;100.00;100518.38;5029310;28;20047;-74
2021/01/02 04:36:53;;;;;;;66.78;28.98;;;;;;;4.87;100.00;100535.66;5034132;28;20098;-75
2021/01/02 04:39:19;;;;;;;64.57;26.75;;;;;;;5.00;100.00;100518.66;5046511;28;20100;-74
2021/01/02 04:41:46;;;;;;;65.00;26.27;;;;;;;4.94;100.00;100527.94;5018052;28;20644;-74
2021/01/02 04:44:11;;;;;;;70.03;29.00;;;;;;;4.91;100.00;100531.25;5044183;28;20049;-74
2021/01/02 04:46:38;;;;;;;65.63;27.10;;;;;;;4.81;100.00;100532.38;5055143;28;20035;-74
2021/01/02 04:49:04;;;;;;;60.13;26.20;;;;;;;4.85;100.00;100533.31;5047681;28;20033;-74
2021/01/02 04:51:30;;;;;;;64.00;28.38;;;;;;;4.85;100.00;100527.97;5047294;28;20037;-75
2021/01/02 04:54:05;;;;;;;65.43;26.80;;;;;;;5.01;100.00;100525.56;5041019;28;20107;-74
2021/01/02 04:56:40;;;;;;;61.20;26.42;;;;;;;5.03;100.00;100534.03;5047498;28;20075;-75
2021/01/02 04:59:09;;;;;;;64.55;27.38;;;;;;;5.08;100.00;100531.97;5047821;28;20590;-74
2021/01/02 05:01:37;;;;;;;70.50;27.35;;;;;;;4.98;100.00;100534.19;5047550;28;20496;-74
2021/01/02 05:04:23;;;;;;;70.15;28.02;;;;;;;5.06;100.00;100531.50;5041792;28;20393;-75
2021/01/02 05:06:49;;;;;;;62.75;26.45;;;;;;;4.91;100.00;100526.69;5046580;28;20072;-74
2021/01/02 05:09:15;;;;;;;61.35;26.02;;;;;;;5.05;100.00;100543.25;5030320;28;20079;-74
2021/01/02 05:11:40;;;;;;;61.17;26.13;;;;;;;5.00;100.00;100535.44;5012319;28;20056;-75
2021/01/02 05:14:07;;;;;;;67.70;26.52;;;;;;;4.94;100.00;100536.72;5044082;28;20037;-74
2021/01/02 05:16:38;;;;;;;68.65;27.25;;;;;;;5.16;100.00;100544.50;5028740;28;20057;-74
2021/01/02 05:19:05;;;;;;;64.95;27.77;;;;;;;4.97;100.00;100545.97;5037644;28;20132;-74
2021/01/02 05:21:32;;;;;;;66.25;27.25;;;;;;;4.98;100.00;100543.00;5026991;28;20216;-74
2021/01/02 05:24:07;;;;;;;64.45;27.20;;;;;;;5.21;100.00;100546.97;5024056;28;20041;-74
2021/01/02 05:26:34;;;;;;;64.70;26.95;;;;;;;5.29;100.00;100550.69;5045839;28;20075;-75
2021/01/02 05:29:22;;;;;;;65.53;26.92;;;;;;;5.23;100.00;100550.09;5024247;28;20456;-75
2021/01/02 05:31:53;;;;;;;62.63;26.15;;;;;;;5.10;100.00;100550.31;5028958;28;20106;-72
2021/01/02 05:34:20;;;;;;;61.55;27.00;;;;;;;5.00;100.00;100558.66;5023644;28;20041;-72
2021/01/02 05:36:57;;;;;;;59.00;25.58;;;;;;;5.06;100.00;100550.19;5026071;28;20029;-72
2021/01/02 05:39:43;;;;;;;69.28;27.60;;;;;;;5.23;100.00;100554.66;5034851;28;20072;-72
2021/01/02 05:42:09;;;;;;;63.72;25.50;;;;;;;5.19;100.00;100557.19;5042511;28;20037;-72
2021/01/02 05:44:39;;;;;;;64.80;25.38;;;;;;;5.26;100.00;100562.03;5040993;28;20078;-72
2021/01/02 05:47:06;;;;;;;58.38;26.65;;;;;;;5.11;100.00;100559.91;5047385;28;20795;-72
2021/01/02 05:49:40;;;;;;;60.35;25.38;;;;;;;5.08;100.00;100563.19;5048357;28;20103;-73
2021/01/02 05:52:08;;;;;;;59.28;26.75;;;;;;;5.19;100.00;100559.84;5047779;28;20033;-73
2021/01/02 05:54:36;;;;;;;64.47;27.13;;;;;;;5.07;100.00;100565.06;5047909;28;20033;-73
2021/01/02 05:57:04;;;;;;;61.70;25.65;;;;;;;4.99;100.00;100565.13;5052032;28;20032;-73
2021/01/02 05:59:31;;;;;;;60.72;26.33;;;;;;;5.24;100.00;100573.03;5059880;28;20028;-73
2021/01/02 06:01:58;;;;;;;68.30;26.75;;;;;;;5.28;100.00;100570.50;5048701;28;20701;-73
2021/01/02 06:04:24;;;;;;;55.67;25.33;;;;;;;4.98;100.00;100569.66;5050832;28;20366;-73
2021/01/02 06:07:06;;;;;;;69.20;28.25;;;;;;;5.27;100.00;100566.25;5048703;28;20044;-73
2021/01/02 06:09:35;;;;;;;61.50;25.63;;;;;;;5.17;100.00;100572.72;5045872;28;20036;-73
2021/01/02 06:12:04;;;;;;;62.67;26.52;;;;;;;5.23;100.00;100571.44;5036056;28;20283;-73
2021/01/02 06:14:34;;;;;;;68.15;26.92;;;;;;;5.27;100.00;100574.25;5049265;28;20039;-73
2021/01/02 06:17:06;;;;;;;60.70;26.35;;;;;;;5.22;100.00;100582.47;5036001;28;20031;-73
2021/01/02 06:19:33;;;;;;;69.55;26.40;;;;;;;5.09;100.00;100584.22;5054201;28;20489;-73
2021/01/02 06:21:59;;;;;;;66.22;26.63;;;;;;;5.03;100.00;100582.06;5054175;28;20026;-73
2021/01/02 06:24:25;;;;;;;62.30;25.63;;;;;;;4.96;100.00;100587.88;5049097;28;20042;-73
2021/01/02 06:26:52;;;;;;;66.53;26.85;;;;;;;5.13;100.00;100589.72;5052197;28;20029;-73
2021/01/02 06:29:18;;;;;;;67.35;26.50;;;;;;;5.30;100.00;100589.66;5048186;28;20063;-73
2021/01/02 06:31:44;;;;;;;66.25;26.77;;;;;;;5.21;100.00;100586.22;5048884;28;20713;-73
2021/01/02 06:34:10;;;;;;;72.78;28.23;;;;;;;5.31;100.00;100596.53;5027533;28;20044;-73
2021/01/02 06:36:39;;;;;;;61.25;25.50;;;;;;;5.36;100.00;100601.72;5045748;28;20032;-73
2021/01/02 06:39:16;;;;;;;65.90;26.77;;;;;;;5.32;100.00;100598.13;5038420;28;20036;-73
2021/01/02 06:41:41;;;;;;;70.03;27.58;;;;;;;5.24;100.00;100597.06;5050752;28;20065;-73
2021/01/02 06:44:07;;;;;;;71.82;28.88;;;;;;;5.24;100.00;100598.94;5050345;28;20573;-73
2021/01/02 06:46:36;;;;;;;64.80;26.60;;;;;;;5.28;100.00;100605.97;5040912;28;20101;-73
2021/01/02 06:49:31;;;;;;;69.55;27.23;;;;;;;5.09;100.00;100608.22;5042855;28;20086;-73
2021/01/02 06:51:57;;;;;;;65.97;27.10;;;;;;;5.07;100.00;100609.66;5044614;28;20038;-73
2021/01/02 06:54:23;;;;;;;64.80;27.08;;;;;;;5.04;100.00;100610.28;5038154;28;20106;-73
2021/01/02 06:57:01;;;;;;;64.55;28.08;;;;;;;5.11;100.00;100606.03;5049799;28;20568;-73
2021/01/02 06:59:27;;;;;;;64.47;25.77;;;;;;;5.01;100.00;100611.72;5039290;28;20079;-72
2021/01/02 07:01:52;;;;;;;63.33;25.92;;;;;;;4.99;100.00;100615.81;5049815;28;20029;-73
2021/01/02 07:04:33;;;;;;;66.93;26.83;;;;;;;4.99;100.00;100613.16;5048287;28;20068;-73
2021/01/02 07:06:58;;;;;;;62.25;25.80;;;;;;;5.18;100.00;100605.56;5047260;28;20028;-72
2021/01/02 07:09:25;;;;;;;67.53;27.15;;;;;;;5.31;100.00;100615.22;5045854;28;20382;-73
2021/01/02 07:12:04;;;;;;;66.82;28.15;;;;;;;5.28;100.00;100619.31;5049575;28;20033;-72
2021/01/02 07:14:29;;;;;;;65.70;26.75;;;;;;;5.21;100.00;100621.69;5044711;28;20029;-73
2021/01/02 07:17:04;;;;;;;70.82;27.40;;;;;;;5.33;100.00;100621.81;5049724;28;20082;-73
2021/01/02 07:19:35;;;;;;;64.05;27.77;;;;;;;5.44;100.00;100624.91;5031195;28;20037;-73
2021/01/02 07:22:02;;;;;;;68.97;26.58;;;;;;;5.26;100.00;100636.78;5049650;28;20047;-73
2021/01/02 07:24:38;;;;;;;70.45;27.85;;;;;;;5.35;100.00;100637.50;5046429;28;20025;-74
2021/01/02 07:27:04;;;;;;;65.20;26.63;;;;;;;5.42;100.00;100629.78;5043980;28;20083;-74
2021/01/02 07:29:33;;;;;;;71.60;26.27;;;;;;;5.42;100.00;100627.09;5031247;28;20073;-74
2021/01/02 07:32:12;;;;;;;63.28;27.45;;;;;;;5.32;100.00;100641.59;5042330;28;20020;-73
2021/01/02 07:34:42;;;;;;;62.58;26.40;;;;;;;5.07;100.00;100645.13;5059386;28;20469;-74
2021/01/02 07:37:10;;;;;;;59.78;26.98;;;;;;;5.00;100.00;100642.16;5043526;28;20501;-74
2021/01/02 07:39:37;;;;;;;64.63;25.70;;;;;;;5.05;100.00;100652.66;5032430;28;20098;-73
2021/01/02 07:42:10;;;;;;;68.55;28.05;;;;;;;5.22;100.00;100655.31;5044770;28;20032;-73
2021/01/02 07:45:00;;;;;;;67.30;27.52;;;;;;;5.35;100.00;100665.00;5045805;28;20087;-73
2021/01/02 07:47:27;;;;;;;68.13;28.55;;;;;;;5.33;100.00;100671.75;5054765;28;20079;-73
2021/01/02 07:50:20;;;;;;;76.20;28.75;;;;;;;5.32;100.00;100676.28;5056166;28;20598;-73
2021/01/02 07:52:52;;;;;;;70.43;28.13;;;;;;;5.27;100.00;100673.81;5042453;28;20064;-73
2021/01/02 07:55:26;;;;;;;74.18;29.02;;;;;;;5.31;100.00;100682.75;5052056;28;20070;-73
2021/01/02 07:57:52;;;;;;;68.30;29.10;;;;;;;5.31;100.00;100680.09;5063262;28;20052;-73
2021/01/02 08:00:18;;;;;;;73.38;29.23;;;;;;;5.35;100.00;100686.34;5046158;28;20024;-73
2021/01/02 08:02:44;;;;;;;69.90;28.30;;;;;;;5.09;100.00;100688.28;5059614;28;20098;-73
2021/01/02 08:05:15;;;;;;;76.47;29.65;;;;;;;5.34;100.00;100697.34;5065937;28;20504;-73
2021/01/02 08:07:41;;;;;;;69.40;29.20;;;;;;;5.32;100.00;100692.31;5047445;28;20036;-73
2021/01/02 08:10:12;;;;;;;68.35;29.20;;;;;;;5.19;100.00;100697.84;5062357;28;20036;-73
2021/01/02 08:12:45;;;;;;;78.75;30.67;;;;;;;5.08;100.00;100699.28;5033333;28;20505;-73
2021/01/02 08:15:14;;;;;;;70.43;29.58;;;;;;;4.92;100.00;100698.19;5059888;28;20203;-73
2021/01/02 08:17:41;;;;;;;80.68;30.38;;;;;;;5.18;100.00;100707.75;5045763;28;20052;-73
2021/01/02 08:20:07;;;;;;;74.60;31.38;;;;;;;5.09;100.00;100709.63;5064941;28;20204;-73
2021/01/02 08:22:37;;;;;;;76.70;30.40;;;;;;;5.14;100.00;100714.81;5050161;28;20068;-73
2021/01/02 08:25:03;;;;;;;76.70;29.70;;;;;;;5.18;100.00;100707.75;5037290;28;20616;-73
2021/01/02 08:27:33;;;;;;;73.47;28.85;;;;;;;5.18;100.00;100713.09;5049841;28;20124;-72
2021/01/02 08:30:03;;;;;;;71.10;29.77;;;;;;;5.32;100.00;100719.00;5045106;28;20159;-75
2021/01/02 08:32:32;;;;;;;80.55;31.48;;;;;;;5.34;100.00;100716.03;5046186;28;20065;-73
2021/01/02 08:34:58;;;;;;;72.38;30.05;;;;;;;5.18;100.00;100723.78;5030414;28;20431;-73
2021/01/02 08:37:24;;;;;;;73.97;30.10;;;;;;;5.14;100.00;100724.72;5023785;28;20071;-74
2021/01/02 08:40:04;;;;;;;74.35;29.67;;;;;;;5.09;100.00;100720.31;5047922;28;20021;-74
2021/01/02 08:42:37;;;;;;;78.27;29.47;;;;;;;5.13;100.00;100726.59;5029454;28;20037;-73
2021/01/02 08:45:08;;;;;;;70.72;28.40;;;;;;;5.23;100.00;100731.59;5029270;28;20520;-74
2021/01/02 08:47:35;;;;;;;74.32;30.15;;;;;;;5.26;100.00;100730.97;5034245;28;20033;-73
2021/01/02 08:50:15;;;;;;;72.38;28.60;;;;;;;5.26;100.00;100740.88;5042508;28;20084;-74
2021/01/02 08:52:42;;;;;;;71.90;29.33;;;;;;;5.16;100.00;100735.84;5039124;28;20074;-74
2021/01/02 08:55:16;;;;;;;83.72;31.98;;;;;;;5.22;100.00;100746.06;5031508;28;20064;-74
2021/01/02 08:57:44;;;;;;;75.78;30.75;;;;;;;5.29;100.00;100745.56;5056886;28;20031;-74
2021/01/02 09:00:16;;;;;;;81.95;31.02;;;;;;;5.21;100.00;100751.69;5040446;28;20029;-74
2021/01/02 09:02:44;;;;;;;80.78;30.63;;;;;;;5.24;100.00;100746.53;5037795;28;20025;-74
2021/01/02 09:05:31;;;;;;;74.38;29.23;;;;;;;5.33;100.00;100752.63;5046974;28;20074;-74
2021/01/02 09:08:08;;;;;;;72.95;30.02;;;;;;;5.29;100.00;100754.34;5027121;28;20433;-74
2021/01/02 09:10:37;;;;;;;80.20;30.40;;;;;;;5.16;100.00;100752.66;5025524;28;20732;-74
2021/01/02 09:13:05;;;;;;;78.03;31.42;;;;;;;5.34;100.00;100761.44;5042391;28;20052;-74
2021/01/02 09:15:49;;;;;;;75.07;31.55;;;;;;;5.38;100.00;100755.13;5041484;28;20063;-74
2021/01/02 09:18:36;;;;;;;72.45;30.33;;;;;;;5.17;100.00;100767.56;5044385;28;20041;-74
2021/01/02 09:21:10;;;;;;;72.88;28.10;;;;;;;5.27;100.00;100771.78;5044101;28;20056;-73
2021/01/02 09:23:40;;;;;;;71.90;29.98;;;;;;;5.46;100.00;100770.34;5022232;28;20495;-74
2021/01/02 09:26:27;;;;;;;72.78;30.20;;;;;;;5.21;100.00;100771.16;5026311;28;20685;-74
2021/01/02 09:28:54;;;;;;;70.50;28.98;;;;;;;5.25;100.00;100774.00;5038317;28;20123;-73
2021/01/02 09:31:20;;;;;;;74.47;29.08;;;;;;;5.30;100.00;100779.94;5063214;28;20040;-72
2021/01/02 09:33:46;;;;;;;75.38;28.98;;;;;;;5.22;100.00;100780.75;5049521;28;20116;-72
2021/01/02 09:36:13;;;;;;;75.10;29.05;;;;;;;5.37;100.00;100785.59;5049211;28;20455;-72
2021/01/02 09:38:40;;;;;;;76.20;29.65;;;;;;;5.45;100.00;100784.81;5048652;28;20052;-72
2021/01/02 09:41:06;;;;;;;73.25;30.02;;;;;;;5.53;100.00;100787.78;5049880;28;20024;-72
2021/01/02 09:43:32;;;;;;;76.55;29.63;;;;;;;5.62;100.00;100788.53;5047208;28;20491;-72
2021/01/02 09:45:57;;;;;;;75.63;28.95;;;;;;;5.56;100.00;100792.47;5054123;28;20081;-72
2021/01/02 09:48:23;;;;;;;78.95;29.73;;;;;;;5.39;100.00;100798.63;5051207;28;20037;-73
2021/01/02 09:50:48;;;;;;;69.10;28.25;;;;;;;5.31;100.00;100792.22;5058593;28;20027;-73
2021/01/02 09:53:14;;;;;;;71.00;28.20;;;;;;;5.17;100.00;100791.59;5051162;28;20025;-73
2021/01/02 09:55:40;;;;;;;68.00;28.33;;;;;;;5.42;100.00;100793.44;5049380;28;20033;-73
2021/01/02 09:58:05;;;;;;;63.83;26.75;;;;;;;5.44;100.00;100791.25;5051462;28;20048;-72
2021/01/02 10:00:31;;;;;;;66.53;28.45;;;;;;;5.53;100.00;100793.13;5052907;28;20049;-73
2021/01/02 10:02:57;;;;;;;66.32;28.15;;;;;;;5.54;100.00;100790.13;5049517;28;20119;-72
2021/01/02 10:05:24;;;;;;;68.45;27.08;;;;;;;5.78;100.00;100797.63;5052227;28;20029;-72
2021/01/02 10:07:50;;;;;;;68.07;28.27;;;;;;;5.60;100.00;100802.22;5039263;28;20037;-72
2021/01/02 10:10:17;;;;;;;69.78;28.65;;;;;;;5.60;100.00;100804.88;5030918;28;20367;-73
2021/01/02 10:12:44;;;;;;;65.97;27.30;;;;;;;5.59;100.00;100800.66;5034219;28;20151;-73
2021/01/02 10:15:11;;;;;;;71.70;28.05;;;;;;;5.75;100.00;100799.03;5070828;28;20037;-72
2021/01/02 10:17:37;;;;;;;72.35;28.42;;;;;;;5.71;100.00;100808.00;5064183;28;20032;-72
2021/01/02 10:20:04;;;;;;;67.82;29.27;;;;;;;5.44;100.00;100806.47;5044599;28;20078;-72
2021/01/02 10:22:30;;;;;;;73.22;28.15;;;;;;;5.63;100.00;100809.59;5067340;28;20032;-72
2021/01/02 10:24:55;;;;;;;71.85;29.20;;;;;;;5.73;100.00;100805.81;5050587;28;20577;-73
2021/01/02 10:27:23;;;;;;;70.28;27.65;;;;;;;5.58;100.00;100820.44;5049902;28;20028;-73
2021/01/02 10:29:51;;;;;;;72.18;27.02;;;;;;;5.79;100.00;100812.56;5039440;28;20396;-73
2021/01/02 10:32:17;;;;;;;71.20;28.42;;;;;;;5.77;100.00;100812.09;5062219;28;20067;-73
2021/01/02 10:34:45;;;;;;;68.55;28.33;;;;;;;5.62;100.00;100812.56;5052506;28;20040;-73
2021/01/02 10:37:12;;;;;;;73.20;28.15;;;;;;;5.38;100.00;100821.09;5058448;28;20083;-73
2021/01/02 10:39:39;;;;;;;59.45;26.00;;;;;;;5.37;100.00;100809.63;5039509;28;20071;-73
2021/01/02 10:42:05;;;;;;;67.10;27.38;;;;;;;5.73;100.00;100813.81;5034272;28;20037;-73
2021/01/02 10:44:30;;;;;;;74.93;29.35;;;;;;;5.77;100.00;100815.53;5047749;28;20068;-73
2021/01/02 10:46:56;;;;;;;74.30;28.98;;;;;;;5.80;100.00;100816.78;5050785;28;20122;-73
2021/01/02 10:49:22;;;;;;;70.53;29.20;;;;;;;5.79;100.00;100812.56;5066918;28;20111;-72
2021/01/02 10:51:48;;;;;;;78.70;30.13;;;;;;;5.88;100.00;100821.34;5056935;28;20063;-73
2021/01/02 10:54:16;;;;;;;74.45;29.30;;;;;;;5.58;100.00;100817.75;5053008;28;20255;-73
2021/01/02 10:56:52;;;;;;;70.18;29.40;;;;;;;5.74;100.00;100826.06;5051024;28;20037;-73
2021/01/02 10:59:21;;;;;;;80.03;29.52;;;;;;;5.78;100.00;100816.31;5046715;28;20044;-72
2021/01/02 11:01:48;;;;;;;74.43;29.85;;;;;;;5.80;100.00;100817.56;5041140;28;20047;-73
2021/01/02 11:04:16;;;;;;;77.28;29.90;;;;;;;5.55;100.00;100820.28;5059693;28;20442;-73
2021/01/02 11:06:44;;;;;;;74.28;30.30;;;;;;;5.36;100.00;100817.97;5050555;28;20051;-73
2021/01/02 11:09:13;;;;;;;72.65;29.40;;;;;;;5.64;100.00;100819.16;5064516;28;20468;-72
2021/01/02 11:11:39;;;;;;;77.40;30.55;;;;;;;5.50;100.00;100827.34;5048598;28;20040;-73
2021/01/02 11:14:06;;;;;;;77.88;29.42;;;;;;;5.53;100.00;100826.72;5051144;28;20386;-73
2021/01/02 11:16:36;;;;;;;72.80;30.63;;;;;;;5.43;100.00;100826.28;5039272;28;20029;-73
2021/01/02 11:19:12;;;;;;;70.80;28.55;;;;;;;5.46;100.00;100823.75;5047965;28;20068;-73
2021/01/02 11:21:38;;;;;;;72.30;27.77;;;;;;;5.45;100.00;100808.06;5037798;28;20039;-73
2021/01/02 11:24:05;;;;;;;70.20;28.58;;;;;;;5.55;100.00;100813.06;5048896;28;20481;-73
2021/01/02 11:26:30;;;;;;;69.88;25.17;;;;;;;5.70;100.00;100815.22;5049208;28;20029;-73